Atlantic - Newfoundland: Past 24 Hour Conditions

 

Mary's Harbour

07:30 AM NST 28 November 2014
This table is a summary of hourly weather conditions for the past 24 hours.
Date / Time
(NST)
Wind(knots) Conditions Visibility(km) Pressure(kPa) Air tempC) Relative humidity(%) Dew pointC) Wind Chill
28 November 2014
7:30 NW 13 gust 22 Mainly Clear 16 101.0 -8 81 -11 -16
6:30 NW 17 gust 22 Cloudy 16 101.0 -7 80 -10 -16
5:30 NW 16 gust 25 Light Snow 16 100.9 -7 81 -9 -15
4:30 NW 16 gust 23 Light Snow 16 100.8 -7 82 -10 -16
3:30 NW 16 gust 23 Light Snow 11 100.7 -7 84 -9 -16
2:30 NNW 18 gust 26 Light Snow 8 100.6 -5 84 -8 -14
1:30 NNW 17 gust 28 Light Snow 5 100.5 -5 85 -7 -13
0:30 NNW 20 gust 31 Light Snow 3 100.5 -5 86 -7 -14
27 November 2014
23:30 NNW 19 gust 29 Light Snow 1 100.5 -4 89 -6 -13
22:30 N 14 gust 25 Light Snow 2 100.5 -4 91 -5 -11
21:30 N 14 gust 26 Light Snow 1 100.5 -4 92 -5 -11
20:30 N 13 gust 27 Light Snow 1 100.5 -4 93 -5 -11
19:30 N 17 gust 26 Light Snow 1 100.6 -4 92 -5 -12
18:30 NNE 13 gust 21 Light Snow 1 100.6 -4 93 -5 -11
17:30 NE 16 gust 26 Light Snow 2 100.7 -4 87 -6 -12
16:30 NNE 17 gust 23 Light Snow 2 100.8 -4 90 -6 -12
15:30 NNE 12 gust 20 Light Snow 0.6 100.9 -5 92 -6 -11
14:30 N 9 Light Snow 2 101.0 -5 92 -6 -11
13:30 N 9 gust 15 Light Snow 2 101.1 -6 89 -7 -12
12:30 NNE 9 gust 15 Light Snow 2 101.3 -6 90 -7 -12
11:30 N 7 Light Snow 2 101.5 -6 91 -7 -11
10:30 N 7 Light Snow 2 101.5 -6 89 -7 -11
9:30 NNW 4 Light Snow 24 101.7 -6 83 -9 -10
8:30 NNW 6 Cloudy 24 101.8 -6 78 -9 -11
7:30 WNW 6 Cloudy 16 101.8 -6 75 -10 -11
 
Map of Atlantic - Newfoundland marine weather areas Southwestern Grand Banks - 44138 Banquereau - 44139 Tail of the Bank - 44140 Nickerson Bank - 44251 Northeast Burgeo Bank - 44255 Blanc-Sablon Airport Cap Whittle Chevery Natashquan Airport Heath Point Miscou Island Grand Étang Ingonish Beach North Mountain St.Paul Island J.A. Douglas McCurdy Sydney Airport Charlottetown Airport East Point North Cape Argentia Bonavista Burgeo Cape Race Corner Brook Daniel's Harbour Englee Ferolle Point La Scie Port aux Basques Rocky Harbour Sagona Island St. Anthony Airport St. John's Int'l Airport St. Lawrence Stephenville Airport Twillingate Winterland Wreckhouse Cartwright Airport Mary's Harbour Grates Cove Pool's Island Marticot Island Long Pond Îles de la Madeleine Airport
Legend: buoyBuoy land stationLand Station